CheckWX is a tool to help pilots better visualize weather data.  It is not intended as a substitute for an official pre-flight weather briefing.

02:00:39 UTC

KGGG METAR
East Texas Regional Airport
Longview, Texas, USA
Current

1 hour ago

KGGG 200053Z 16005KT 10SM CLR 31/24 A2993 RMK AO2 SLP128 T03060244
Observed
Jul-20 @ 00:53 UTC
Wind
  • 160° at 5 KTS
Visibility
10 SM
Flight Rules
VFR
Cloud Levels
  • Clear skies
Temperature
31°C / 88°F
Dewpoint
24°C / 75°F
Heat Index
37°C / 98°F
Humidity
66%
Altimeter
29.93" Hg
Pressure
1013.52 hPa
Previous

2 hours ago

KGGG 192353Z 19008KT 10SM FEW050 33/22 A2993 RMK AO2 SLP128 T03330222 10356 20317 56013
Observed
Jul-19 @ 23:53 UTC
Wind
  • 190° at 8 KTS
Visibility
10 SM
Flight Rules
VFR
Cloud Levels
  • Few at 5,000' AGL
Temperature
33°C / 91°F
Dewpoint
22°C / 72°F
Heat Index
37°C / 98°F
Humidity
52%
Altimeter
29.93" Hg
Pressure
1013.52 hPa
Previous

3 hours ago

KGGG 192253Z 19010KT 10SM FEW050 34/22 A2994 RMK AO2 SLP131 T03390222
Observed
Jul-19 @ 22:53 UTC
Wind
  • 190° at 10 KTS
Visibility
10 SM
Flight Rules
VFR
Cloud Levels
  • Few at 5,000' AGL
Temperature
34°C / 93°F
Dewpoint
22°C / 72°F
Heat Index
38°C / 100°F
Humidity
49%
Altimeter
29.94" Hg
Pressure
1013.92 hPa